Terminal Aerodrome Forecast
Issued by NWS

Home | Current Version | Previous Version | Text Only | Print | Product List | Glossary On
Versions: 1 2 3 4 5 6 7 8 9 10 11 12 13 14 15 16 17 18 19 20 21 22 23 24
000
FTUS45 KRIW 190532
TAFJAC
TAF
KJAC 190532Z 1906/2006 01006KT P6SM SKC
     FM191500 19010KT P6SM SCT250
     FM191800 21014G22KT P6SM SCT250
     FM200000 21011KT P6SM SCT090
     FM200500 VRB06KT P6SM VCSH SCT070 BKN090
     AMD LTD TO CLD VIS AND WIND=

USA.gov is the U.S. government's official web portal to all federal, state and local government web resources and services.